This is the latest recevied weather packets stored in our database for station/object F4LNO-10. If no packets are shown the sender has not sent any weather packets the latest 1 day(s).
| Time | Temp. | Humidity | Pressure | Rain* | Wind** | Luminosity | Snow |
|---|---|---|---|---|---|---|---|
| 1777724472 | 20° C | 49% | 1024.8 hPa | - | - | - | - |
| 1777723571 | 20° C | 48% | 1024.8 hPa | - | - | - | - |
| 1777722670 | 21.67° C | 45% | 1024.8 hPa | - | - | - | - |
| 1777721769 | 20° C | 48% | 1025 hPa | - | - | - | - |
| 1777720868 | 22.22° C | 45% | 1025 hPa | - | - | - | - |
| 1777719967 | 22.22° C | 45% | 1025.2 hPa | - | - | - | - |
| 1777719066 | 22.22° C | 44% | 1025.3 hPa | - | - | - | - |
| 1777718166 | 22.22° C | 45% | 1025.3 hPa | - | - | - | - |
| 1777717265 | 22.22° C | 44% | 1025.5 hPa | - | - | - | - |
| 1777716364 | 21.67° C | 45% | 1025.6 hPa | - | - | - | - |
| 1777715463 | 22.22° C | 45% | 1025.6 hPa | - | - | - | - |
| 1777714562 | 21.67° C | 46% | 1025.7 hPa | - | - | - | - |
| 1777713661 | 19.44° C | 49% | 1025.8 hPa | - | - | - | - |
| 1777712761 | 20.56° C | 48% | 1025.8 hPa | - | - | - | - |
| 1777711860 | 19.44° C | 51% | 1025.7 hPa | - | - | - | - |
| 1777710959 | 19.44° C | 50% | 1025.7 hPa | - | - | - | - |
| 1777710058 | 19.44° C | 51% | 1025.8 hPa | - | - | - | - |
| 1777709157 | 20° C | 49% | 1025.7 hPa | - | - | - | - |
| 1777708256 | 20° C | 51% | 1025.7 hPa | - | - | - | - |
| 1777707375 | 20° C | 51% | 1025.9 hPa | - | - | - | - |
| 1777706474 | 19.44° C | 53% | 1026 hPa | - | - | - | - |
* Rain since midnight (hover to see other rain measurements)
** Current wind speed in m/s (hover to see current wind gust speed)